createdAt,value
2022-12-23T00:02:01.929Z,10.48
2022-12-23T00:04:34.089Z,11.57
2022-12-23T00:07:07.694Z,11.05
2022-12-23T00:09:38.314Z,12.70
2022-12-23T00:12:27.236Z,13.68
2022-12-23T00:15:10.094Z,12.43
2022-12-23T00:17:45.255Z,15.15
2022-12-23T00:20:16.763Z,11.55
2022-12-23T00:23:05.316Z,12.13
2022-12-23T00:25:41.366Z,11.12
2022-12-23T00:28:15.915Z,10.45
2022-12-23T00:30:52.741Z,11.60
2022-12-23T00:33:25.245Z,11.35
2022-12-23T00:35:56.210Z,11.03
2022-12-23T00:38:45.863Z,11.53
2022-12-23T00:41:37.540Z,10.68
2022-12-23T00:44:07.973Z,10.88
2022-12-23T00:46:40.349Z,10.93
2022-12-23T00:49:31.487Z,10.82
2022-12-23T00:52:03.609Z,10.93
2022-12-23T00:54:37.946Z,11.22
2022-12-23T00:57:08.415Z,10.87
2022-12-23T00:59:39.170Z,11.50
2022-12-23T01:02:30.800Z,11.70
2022-12-23T01:05:19.744Z,11.12
2022-12-23T01:07:50.322Z,11.57
2022-12-23T01:10:20.719Z,11.90
2022-12-23T01:12:51.197Z,11.78
2022-12-23T01:15:21.814Z,10.85
2022-12-23T01:17:52.837Z,12.67
2022-12-23T01:20:23.765Z,12.00
2022-12-23T01:22:54.154Z,12.40
2022-12-23T01:25:24.622Z,13.30
2022-12-23T01:27:59.303Z,13.15
2022-12-23T01:30:31.842Z,12.67
2022-12-23T01:33:04.361Z,13.28
2022-12-23T01:35:37.929Z,12.75
2022-12-23T01:38:09.395Z,12.75
2022-12-23T01:40:43.875Z,13.80
2022-12-23T01:43:20.751Z,13.23
2022-12-23T01:45:52.700Z,13.22
2022-12-23T01:48:28.099Z,13.60
2022-12-23T01:51:06.471Z,14.05
2022-12-23T01:53:41.833Z,13.65
2022-12-23T01:56:30.691Z,13.95
2022-12-23T01:59:06.183Z,13.08
2022-12-23T02:01:56.194Z,13.30
2022-12-23T02:04:27.964Z,13.72
2022-12-23T02:07:16.723Z,13.87
2022-12-23T02:09:47.451Z,14.10
2022-12-23T02:12:54.732Z,14.03
2022-12-23T02:15:55.019Z,13.70
2022-12-23T02:18:38.159Z,13.98
2022-12-23T02:21:36.175Z,13.45
2022-12-23T02:24:32.311Z,13.80
2022-12-23T02:27:17.985Z,12.58
2022-12-23T02:30:21.965Z,14.73
2022-12-23T02:32:55.959Z,14.93
2022-12-23T02:35:53.360Z,14.95
2022-12-23T02:38:32.660Z,15.40
2022-12-23T02:41:09.385Z,15.32
2022-12-23T02:44:00.761Z,14.53
2022-12-23T02:46:35.984Z,14.13
2022-12-23T02:49:12.369Z,15.45
2022-12-23T02:51:46.930Z,15.17
2022-12-23T02:54:20.695Z,15.93
2022-12-23T02:56:53.373Z,15.58
2022-12-23T02:59:26.879Z,16.95
2022-12-23T03:01:59.016Z,16.57
2022-12-23T03:04:29.534Z,16.17
2022-12-23T03:07:05.875Z,16.23
2022-12-23T03:09:38.295Z,15.85
2022-12-23T03:12:14.400Z,15.63
2022-12-23T03:14:49.565Z,15.63
2022-12-23T03:17:23.115Z,15.83
2022-12-23T03:19:56.713Z,16.30
2022-12-23T03:22:45.318Z,16.32
2022-12-23T03:25:43.318Z,16.40
2022-12-23T03:28:22.908Z,16.27
2022-12-23T03:30:56.580Z,16.75
2022-12-23T03:33:46.166Z,18.00
2022-12-23T03:36:27.119Z,16.20
2022-12-23T03:38:58.324Z,17.02
2022-12-23T03:41:37.916Z,15.35
2022-12-23T03:44:11.526Z,15.75
2022-12-23T03:46:51.262Z,16.12
2022-12-23T03:49:25.680Z,15.40
2022-12-23T03:52:02.504Z,16.20
2022-12-23T03:54:38.780Z,15.68
2022-12-23T03:57:14.896Z,14.87
2022-12-23T03:59:49.729Z,19.02
2022-12-23T04:02:29.201Z,16.27
2022-12-23T04:05:26.366Z,16.30
2022-12-23T04:08:15.004Z,16.47
2022-12-23T04:10:46.877Z,16.23
2022-12-23T04:13:17.791Z,17.98
2022-12-23T04:15:48.660Z,18.70
2022-12-23T04:18:19.988Z,18.12
2022-12-23T04:20:52.085Z,18.43
2022-12-23T04:23:22.795Z,17.60
2022-12-23T04:25:53.410Z,18.75
2022-12-23T04:28:23.952Z,19.17
2022-12-23T04:30:59.050Z,18.30
2022-12-23T04:33:30.989Z,18.10
2022-12-23T04:36:02.399Z,19.23
2022-12-23T04:38:34.485Z,18.07
2022-12-23T04:41:08.772Z,18.00
2022-12-23T04:43:39.745Z,17.48
2022-12-23T04:46:10.466Z,18.12
2022-12-23T04:48:42.580Z,18.07
2022-12-23T04:51:13.233Z,19.02
2022-12-23T04:53:44.307Z,19.10
2022-12-23T04:56:14.765Z,18.75
2022-12-23T04:58:45.334Z,18.07
2022-12-23T05:01:17.357Z,19.17
2022-12-23T05:03:49.295Z,19.15
2022-12-23T05:06:21.288Z,18.77
2022-12-23T05:08:54.880Z,18.02
2022-12-23T05:11:26.922Z,17.32
2022-12-23T05:14:00.834Z,17.87
2022-12-23T05:16:35.333Z,17.92
2022-12-23T05:19:06.931Z,18.20
2022-12-23T05:21:37.363Z,18.40
2022-12-23T05:24:12.502Z,17.75
2022-12-23T05:26:48.057Z,16.55
2022-12-23T05:29:20.826Z,17.67
2022-12-23T05:31:52.647Z,17.37
2022-12-23T05:34:25.529Z,16.77
2022-12-23T05:36:57.633Z,15.30
2022-12-23T05:39:30.621Z,16.37
2022-12-23T05:42:01.425Z,15.68
2022-12-23T05:44:32.246Z,15.32
2022-12-23T05:47:03.120Z,15.58
2022-12-23T05:49:35.301Z,15.77
2022-12-23T05:52:07.149Z,16.87
2022-12-23T05:54:39.225Z,16.40
2022-12-23T05:57:10.323Z,14.80
2022-12-23T05:59:42.323Z,14.87
2022-12-23T06:02:16.744Z,14.35
2022-12-23T06:04:47.326Z,15.18
2022-12-23T06:07:18.396Z,14.80
2022-12-23T06:09:51.852Z,15.10
2022-12-23T06:12:23.837Z,15.32
2022-12-23T06:14:58.079Z,15.25
2022-12-23T06:17:28.628Z,14.95
2022-12-23T06:20:01.597Z,14.50
2022-12-23T06:22:32.887Z,14.35
2022-12-23T06:25:04.928Z,14.63
2022-12-23T06:27:37.323Z,15.68
2022-12-23T06:30:12.313Z,16.10
2022-12-23T06:32:43.007Z,15.70
2022-12-23T06:35:15.306Z,15.88
2022-12-23T06:37:45.781Z,15.03
2022-12-23T06:40:17.793Z,17.27
2022-12-23T06:42:50.003Z,18.62
2022-12-23T06:45:22.239Z,18.15
2022-12-23T06:47:55.404Z,15.43
2022-12-23T06:50:26.777Z,15.30
2022-12-23T06:52:57.370Z,14.80
2022-12-23T06:55:27.841Z,15.90
2022-12-23T06:57:58.884Z,14.75
2022-12-23T07:00:34.902Z,15.15
2022-12-23T07:03:05.599Z,14.75
2022-12-23T07:05:37.845Z,14.47
2022-12-23T07:08:11.402Z,15.10
2022-12-23T07:10:42.012Z,15.95
2022-12-23T07:13:13.120Z,13.98
2022-12-23T07:15:44.613Z,16.62
2022-12-23T07:18:16.565Z,14.15
2022-12-23T07:20:47.174Z,14.15
2022-12-23T07:23:21.423Z,14.23
2022-12-23T07:25:51.987Z,13.85
2022-12-23T07:28:25.406Z,14.85
2022-12-23T07:30:56.380Z,14.28
2022-12-23T07:33:28.270Z,13.62
2022-12-23T07:36:01.773Z,14.05
2022-12-23T07:38:35.149Z,13.08
2022-12-23T07:41:05.876Z,14.07
2022-12-23T07:43:39.160Z,13.90
2022-12-23T07:46:11.268Z,13.08
2022-12-23T07:48:42.828Z,13.03
2022-12-23T07:51:14.513Z,12.55
2022-12-23T07:53:47.444Z,12.25
2022-12-23T07:56:19.237Z,13.38
2022-12-23T07:58:54.791Z,12.40
2022-12-23T08:01:26.104Z,12.47
2022-12-23T08:03:58.613Z,13.45
2022-12-23T08:06:32.441Z,12.25
2022-12-23T08:09:03.840Z,13.53
2022-12-23T08:11:34.303Z,13.28
2022-12-23T08:14:07.285Z,12.28
2022-12-23T08:16:44.030Z,13.15
2022-12-23T08:19:12.152Z,13.43
2022-12-23T08:21:44.393Z,13.88
2022-12-23T08:24:16.778Z,13.43
2022-12-23T08:26:48.861Z,13.18
2022-12-23T08:29:20.578Z,12.40
2022-12-23T08:31:52.379Z,13.38
2022-12-23T08:34:23.272Z,11.60
2022-12-23T08:36:55.585Z,11.63
2022-12-23T08:39:28.158Z,12.28
2022-12-23T08:41:59.197Z,11.95
2022-12-23T08:44:31.030Z,11.93
2022-12-23T08:47:07.196Z,12.30
2022-12-23T08:49:37.624Z,11.95
2022-12-23T08:52:09.794Z,11.85
2022-12-23T08:54:41.438Z,12.03
2022-12-23T08:57:13.415Z,12.25
2022-12-23T08:59:43.981Z,12.30
2022-12-23T09:02:19.066Z,11.33
2022-12-23T09:04:49.945Z,11.60
2022-12-23T09:07:23.167Z,11.18
2022-12-23T09:09:56.374Z,12.10
2022-12-23T09:12:26.868Z,11.15
2022-12-23T09:14:57.355Z,10.63
2022-12-23T09:17:28.473Z,11.43
2022-12-23T09:20:06.962Z,10.45
2022-12-23T09:22:38.205Z,10.43
2022-12-23T09:25:09.277Z,10.30
2022-12-23T09:27:41.455Z,10.72
2022-12-23T09:30:12.675Z,11.08
2022-12-23T09:32:43.587Z,11.85
2022-12-23T09:35:15.132Z,11.07
2022-12-23T09:37:49.061Z,11.83
2022-12-23T09:40:21.645Z,10.95
2022-12-23T09:43:11.638Z,11.12
2022-12-23T09:46:02.194Z,11.25
2022-12-23T09:48:37.353Z,10.58
2022-12-23T09:51:10.154Z,10.98
2022-12-23T09:53:50.511Z,11.05
2022-12-23T09:56:46.634Z,10.30
2022-12-23T09:59:47.704Z,11.35
2022-12-23T10:02:38.888Z,10.10
2022-12-23T10:05:35.434Z,11.38
2022-12-23T10:08:25.926Z,10.58
2022-12-23T10:11:00.349Z,11.35
2022-12-23T10:13:35.692Z,11.05
2022-12-23T10:16:15.238Z,10.63
2022-12-23T10:19:04.319Z,11.10
2022-12-23T10:21:42.342Z,10.90
2022-12-23T10:24:29.232Z,11.05
2022-12-23T10:27:03.059Z,10.40
2022-12-23T10:29:37.774Z,11.53
2022-12-23T10:32:28.015Z,10.33
2022-12-23T10:35:10.832Z,10.38
2022-12-23T10:37:44.441Z,10.43
2022-12-23T10:40:24.431Z,10.28
2022-12-23T10:43:08.967Z,9.58
2022-12-23T10:46:12.290Z,9.63
2022-12-23T10:48:51.611Z,10.03
2022-12-23T10:51:35.237Z,9.18
2022-12-23T10:54:08.940Z,8.83
2022-12-23T10:56:41.250Z,8.73
2022-12-23T10:59:15.476Z,7.90
2022-12-23T11:01:49.443Z,8.55
2022-12-23T11:04:24.169Z,8.10
2022-12-23T11:07:26.157Z,8.38
2022-12-23T11:09:31.460Z,7.80
2022-12-23T11:12:04.979Z,8.55
2022-12-23T11:14:44.586Z,8.00
2022-12-23T11:17:31.532Z,7.75
2022-12-23T11:20:17.323Z,8.05
2022-12-23T11:22:58.269Z,8.30
2022-12-23T11:25:31.773Z,8.68
2022-12-23T11:28:07.896Z,9.33
2022-12-23T11:30:59.761Z,8.18
2022-12-23T11:33:36.274Z,9.45
2022-12-23T11:36:11.211Z,9.35
2022-12-23T11:38:53.792Z,9.83
2022-12-23T11:41:28.790Z,9.80
2022-12-23T11:44:02.601Z,10.78
2022-12-23T11:46:35.616Z,10.30
2022-12-23T11:49:27.439Z,10.93
2022-12-23T11:52:15.024Z,11.03
2022-12-23T11:54:55.575Z,10.78
2022-12-23T11:57:35.239Z,12.45
2022-12-23T12:00:08.955Z,11.80
2022-12-23T12:02:42.697Z,11.78
2022-12-23T12:05:22.949Z,12.58
2022-12-23T12:07:54.012Z,12.10
2022-12-23T12:10:31.830Z,11.35
2022-12-23T12:13:07.101Z,11.80
2022-12-23T12:16:14.703Z,12.70
2022-12-23T12:18:53.687Z,13.48
2022-12-23T12:21:24.834Z,13.18
2022-12-23T12:24:17.949Z,12.37
2022-12-23T12:26:38.859Z,12.07
2022-12-23T12:29:27.652Z,13.88
2022-12-23T12:32:03.070Z,13.50
2022-12-23T12:34:44.471Z,12.13
2022-12-23T12:37:20.713Z,12.05
2022-12-23T12:40:03.720Z,12.47
2022-12-23T12:42:46.235Z,11.03
2022-12-23T12:45:22.654Z,12.07
2022-12-23T12:48:05.968Z,12.07
2022-12-23T12:50:38.080Z,11.48
2022-12-23T12:53:14.599Z,11.63
2022-12-23T12:55:48.175Z,13.60
2022-12-23T12:58:24.663Z,11.45
2022-12-23T13:01:19.540Z,9.68
2022-12-23T13:04:09.941Z,10.50
2022-12-23T13:06:55.504Z,9.68
2022-12-23T13:09:52.229Z,9.20
2022-12-23T13:12:29.312Z,8.98
2022-12-23T13:15:02.904Z,9.25
2022-12-23T13:17:37.540Z,9.63
2022-12-23T13:20:15.760Z,9.35
2022-12-23T13:22:49.351Z,10.15
2022-12-23T13:25:31.961Z,10.18
2022-12-23T13:28:25.619Z,9.73
2022-12-23T13:31:01.736Z,10.15
2022-12-23T13:33:38.466Z,10.58
2022-12-23T13:36:21.759Z,10.88
2022-12-23T13:39:26.419Z,10.53
2022-12-23T13:42:04.783Z,10.58
2022-12-23T13:44:34.455Z,10.68
2022-12-23T13:47:33.303Z,9.53
2022-12-23T13:50:22.468Z,10.78
2022-12-23T13:53:12.764Z,10.50
2022-12-23T13:55:57.054Z,10.82
2022-12-23T13:58:31.543Z,10.45
2022-12-23T14:01:10.493Z,10.88
2022-12-23T14:03:44.274Z,9.95
2022-12-23T14:06:27.192Z,10.55
2022-12-23T14:08:57.884Z,10.50
2022-12-23T14:11:33.350Z,11.18
2022-12-23T14:14:07.049Z,11.53
2022-12-23T14:17:06.309Z,10.50
2022-12-23T14:19:55.688Z,12.07
2022-12-23T14:22:46.302Z,11.60
2022-12-23T14:25:39.827Z,11.63
2022-12-23T14:28:22.209Z,11.43
2022-12-23T14:30:54.564Z,12.03
2022-12-23T14:33:30.253Z,11.43
2022-12-23T14:36:19.306Z,10.75
2022-12-23T14:39:17.422Z,10.82
2022-12-23T14:41:53.741Z,9.63
2022-12-23T14:44:43.688Z,8.45
2022-12-23T14:47:34.943Z,9.58
2022-12-23T14:50:40.422Z,9.63
2022-12-23T14:53:31.836Z,8.75
2022-12-23T14:56:17.798Z,8.55
2022-12-23T14:58:55.721Z,9.55
2022-12-23T15:01:41.551Z,8.30
2022-12-23T15:04:18.670Z,8.18
2022-12-23T15:06:52.111Z,8.78
2022-12-23T15:09:28.877Z,8.90
2022-12-23T15:12:02.123Z,9.18
2022-12-23T15:14:38.581Z,8.63
2022-12-23T15:17:28.932Z,9.75
2022-12-23T15:20:26.244Z,10.63
2022-12-23T15:23:03.052Z,10.23
2022-12-23T15:25:36.553Z,10.53
2022-12-23T15:28:18.392Z,9.35
2022-12-23T15:30:54.431Z,10.70
2022-12-23T15:36:07.019Z,11.22
2022-12-23T15:41:44.796Z,11.08
2022-12-23T15:44:24.504Z,11.40
2022-12-23T15:46:56.043Z,10.58
2022-12-23T15:49:26.664Z,10.80
2022-12-23T15:52:11.026Z,11.85
2022-12-23T15:54:39.036Z,12.10
2022-12-23T15:57:13.818Z,14.18
2022-12-23T15:59:44.441Z,12.70
2022-12-23T16:05:03.485Z,14.30
2022-12-23T16:07:37.206Z,16.32
2022-12-23T16:10:19.996Z,14.43
2022-12-23T16:12:53.372Z,12.10
2022-12-23T16:15:29.992Z,12.93
2022-12-23T16:18:16.006Z,14.53
2022-12-23T16:20:50.486Z,14.45
2022-12-23T16:23:22.938Z,13.20
2022-12-23T16:25:54.416Z,14.05
2022-12-23T16:28:32.747Z,15.10
2022-12-23T16:31:07.746Z,14.60
2022-12-23T16:33:47.313Z,14.23
2022-12-23T16:36:30.201Z,15.50
2022-12-23T16:39:09.455Z,15.88
2022-12-23T16:41:42.134Z,14.53
2022-12-23T16:44:15.659Z,14.55
2022-12-23T16:46:48.901Z,15.32
2022-12-23T16:49:26.559Z,15.63
2022-12-23T16:51:55.428Z,12.65
2022-12-23T16:54:27.056Z,14.58
2022-12-23T16:56:58.299Z,12.18
2022-12-23T16:59:30.347Z,12.10
2022-12-23T17:02:03.815Z,11.28
2022-12-23T17:04:33.261Z,12.55
2022-12-23T17:07:05.426Z,13.08
2022-12-23T17:09:35.836Z,12.45
2022-12-23T17:12:06.568Z,12.25
2022-12-23T17:14:38.418Z,11.30
2022-12-23T17:17:17.474Z,12.33
2022-12-23T17:19:48.091Z,12.35
2022-12-23T17:22:21.731Z,10.60
2022-12-23T17:24:53.874Z,12.00
2022-12-23T17:27:25.426Z,12.00
2022-12-23T17:29:56.188Z,11.68
2022-12-23T17:32:27.990Z,11.28
2022-12-23T17:34:59.526Z,11.03
2022-12-23T17:37:31.372Z,12.03
2022-12-23T17:40:02.272Z,11.97
2022-12-23T17:42:33.463Z,12.45
2022-12-23T17:45:06.044Z,12.93
2022-12-23T17:47:36.797Z,13.00
2022-12-23T17:50:09.975Z,12.65
2022-12-23T17:52:42.024Z,13.08
2022-12-23T17:55:21.812Z,15.15
2022-12-23T17:57:53.431Z,12.33
2022-12-23T18:00:33.841Z,12.43
2022-12-23T18:02:58.448Z,11.88
2022-12-23T18:05:33.418Z,11.85
2022-12-23T18:08:06.136Z,11.43
2022-12-23T18:10:39.669Z,13.22
2022-12-23T18:13:16.506Z,12.55
2022-12-23T18:15:47.807Z,11.73
2022-12-23T18:18:31.234Z,10.60
2022-12-23T18:20:59.306Z,10.48
2022-12-23T18:23:34.628Z,11.03
2022-12-23T18:26:05.446Z,9.80
2022-12-23T18:28:36.015Z,10.55
2022-12-23T18:31:12.275Z,15.55
2022-12-23T18:33:42.959Z,11.05
2022-12-23T18:36:28.609Z,10.30
2022-12-23T18:39:00.394Z,11.90
2022-12-23T18:41:31.784Z,16.02
2022-12-23T18:44:02.255Z,11.80
2022-12-23T18:46:32.746Z,10.55
2022-12-23T18:49:05.024Z,11.57
2022-12-23T18:51:36.123Z,12.45
2022-12-23T18:54:06.803Z,20.77
2022-12-23T18:56:38.814Z,22.07
2022-12-23T18:59:13.346Z,17.00
2022-12-23T19:01:45.069Z,14.53
2022-12-23T19:04:17.340Z,14.63
2022-12-23T19:06:48.082Z,16.97
2022-12-23T19:09:21.831Z,14.78
2022-12-23T19:11:55.526Z,16.02
2022-12-23T19:14:26.668Z,15.23
2022-12-23T19:16:58.909Z,15.45
2022-12-23T19:19:29.467Z,15.43
2022-12-23T19:22:00.437Z,15.98
2022-12-23T19:24:32.042Z,15.70
2022-12-23T19:27:03.627Z,18.52
2022-12-23T19:29:34.135Z,18.43
2022-12-23T19:32:04.984Z,14.63
2022-12-23T19:34:41.518Z,12.70
2022-12-23T19:37:14.026Z,13.27
2022-12-23T19:39:46.551Z,14.23
2022-12-23T19:42:18.615Z,12.10
2022-12-23T19:44:49.064Z,12.68
2022-12-23T19:47:21.152Z,15.68
2022-12-23T19:49:52.089Z,16.83
2022-12-23T19:52:23.357Z,15.68
2022-12-23T19:54:57.331Z,15.10
2022-12-23T19:57:29.605Z,16.67
2022-12-23T20:00:05.041Z,15.00
2022-12-23T20:02:36.644Z,16.42
2022-12-23T20:05:10.521Z,16.77
2022-12-23T20:07:41.145Z,17.50
2022-12-23T20:10:14.060Z,18.10
2022-12-23T20:12:46.731Z,18.42
2022-12-23T20:15:18.933Z,18.07
2022-12-23T20:17:51.985Z,17.67
2022-12-23T20:20:24.967Z,18.07
2022-12-23T20:22:57.039Z,18.57
2022-12-23T20:25:28.745Z,18.75
2022-12-23T20:27:59.362Z,18.10
2022-12-23T20:30:39.525Z,19.00
2022-12-23T20:33:08.653Z,19.12
2022-12-23T20:35:41.257Z,21.12
2022-12-23T20:38:13.554Z,20.20
2022-12-23T20:40:44.309Z,21.15
2022-12-23T20:43:15.766Z,20.12
2022-12-23T20:45:50.581Z,21.10
2022-12-23T20:48:24.900Z,20.70
2022-12-23T20:50:58.892Z,20.45
2022-12-23T20:53:33.409Z,19.37
2022-12-23T20:56:11.177Z,20.37
2022-12-23T20:59:03.242Z,20.65
2022-12-23T21:01:39.439Z,19.37
2022-12-23T21:04:14.206Z,19.80
2022-12-23T21:06:45.814Z,19.12
2022-12-23T21:09:19.337Z,19.23
2022-12-23T21:11:51.322Z,18.45
2022-12-23T21:14:22.854Z,18.80
2022-12-23T21:16:55.576Z,19.00
2022-12-23T21:19:29.965Z,18.87
2022-12-23T21:22:04.496Z,17.87
2022-12-23T21:24:36.606Z,18.12
2022-12-23T21:27:08.853Z,18.43
2022-12-23T21:29:41.900Z,19.80
2022-12-23T21:32:13.072Z,17.57
2022-12-23T21:34:44.413Z,17.65
2022-12-23T21:37:15.958Z,18.45
2022-12-23T21:39:46.658Z,15.80
2022-12-23T21:42:18.180Z,16.17
2022-12-23T21:44:51.303Z,18.60
2022-12-23T21:47:22.018Z,15.68
2022-12-23T21:49:57.333Z,14.55
2022-12-23T21:52:30.031Z,14.93
2022-12-23T21:55:01.605Z,14.73
2022-12-23T21:57:32.061Z,15.03
2022-12-23T22:00:02.447Z,14.73
2022-12-23T22:02:34.479Z,13.85
2022-12-23T22:05:06.901Z,14.03
2022-12-23T22:07:38.088Z,13.37
2022-12-23T22:10:09.917Z,13.63
2022-12-23T22:12:40.668Z,14.60
2022-12-23T22:15:13.125Z,13.40
2022-12-23T22:17:44.427Z,13.60
2022-12-23T22:20:15.901Z,12.75
2022-12-23T22:22:46.499Z,12.35
2022-12-23T22:25:18.864Z,10.87
2022-12-23T22:27:49.554Z,12.00
2022-12-23T22:30:20.139Z,11.57
2022-12-23T22:32:53.504Z,11.25
2022-12-23T22:35:27.205Z,10.70
2022-12-23T22:37:58.330Z,10.80
2022-12-23T22:40:33.264Z,11.27
2022-12-23T22:43:06.533Z,11.03
2022-12-23T22:45:40.016Z,10.32
2022-12-23T22:48:12.721Z,10.90
2022-12-23T22:50:45.646Z,10.28
2022-12-23T22:53:24.845Z,9.90
2022-12-23T22:55:57.876Z,10.43
2022-12-23T22:58:31.206Z,9.83
2022-12-23T23:01:04.478Z,9.50
2022-12-23T23:03:38.225Z,10.33
2022-12-23T23:06:16.925Z,10.53
2022-12-23T23:08:47.632Z,10.50
2022-12-23T23:11:18.530Z,13.35
2022-12-23T23:13:49.209Z,11.47
2022-12-23T23:16:21.500Z,10.97
2022-12-23T23:18:53.128Z,10.03
2022-12-23T23:21:24.708Z,10.10
2022-12-23T23:23:55.394Z,10.43
2022-12-23T23:26:27.659Z,9.50
2022-12-23T23:28:59.892Z,10.70
2022-12-23T23:31:41.782Z,9.95
2022-12-23T23:34:05.065Z,10.13
2022-12-23T23:36:37.377Z,9.87
2022-12-23T23:39:13.685Z,9.50
2022-12-23T23:41:44.648Z,9.55
2022-12-23T23:44:15.397Z,9.90
2022-12-23T23:46:48.297Z,10.53
2022-12-23T23:49:21.702Z,9.23
2022-12-23T23:51:53.389Z,9.58
2022-12-23T23:54:25.877Z,10.30
2022-12-23T23:56:56.518Z,10.43
2022-12-23T23:59:30.845Z,10.73
